createdAt,value
2023-05-04T00:02:20.468Z,85.42
2023-05-04T00:04:48.763Z,85.91
2023-05-04T00:07:16.948Z,85.85
2023-05-04T00:09:45.234Z,86.03
2023-05-04T00:12:13.440Z,86.76
2023-05-04T00:14:43.090Z,86.51
2023-05-04T00:17:12.773Z,86.97
2023-05-04T00:19:42.337Z,87.90
2023-05-04T00:22:10.634Z,88.14
2023-05-04T00:24:38.926Z,88.21
2023-05-04T00:27:07.300Z,89.36
2023-05-04T00:29:36.749Z,89.54
2023-05-04T00:32:06.876Z,89.66
2023-05-04T00:34:35.178Z,90.03
2023-05-04T00:37:03.375Z,89.72
2023-05-04T00:39:31.579Z,90.26
2023-05-04T00:41:59.817Z,89.75
2023-05-04T00:44:28.163Z,89.93
2023-05-04T00:46:57.152Z,90.12
2023-05-04T00:49:27.605Z,89.92
2023-05-04T00:51:57.256Z,89.83
2023-05-04T00:54:26.815Z,89.78
2023-05-04T00:56:55.280Z,89.90
2023-05-04T00:59:23.641Z,90.06
2023-05-04T01:01:51.846Z,90.06
2023-05-04T01:04:20.753Z,90.67
2023-05-04T01:07:04.970Z,90.71
2023-05-04T01:09:41.453Z,90.18
2023-05-04T01:12:15.309Z,90.85
2023-05-04T01:14:45.241Z,90.46
2023-05-04T01:17:13.820Z,90.70
2023-05-04T01:19:42.120Z,90.88
2023-05-04T01:22:11.798Z,90.59
2023-05-04T01:24:40.408Z,90.69
2023-05-04T01:27:12.535Z,90.99
2023-05-04T01:29:46.489Z,90.87
2023-05-04T01:32:16.691Z,91.15
2023-05-04T01:34:45.041Z,91.01
2023-05-04T01:37:14.787Z,91.56
2023-05-04T01:39:43.126Z,91.55
2023-05-04T01:42:11.365Z,91.93
2023-05-04T01:44:39.798Z,92.08
2023-05-04T01:47:08.259Z,92.06
2023-05-04T01:49:36.712Z,91.89
2023-05-04T01:52:05.228Z,92.00
2023-05-04T01:54:34.933Z,92.15
2023-05-04T01:57:03.404Z,92.44
2023-05-04T01:59:31.624Z,92.46
2023-05-04T02:02:00.196Z,92.84
2023-05-04T02:04:29.640Z,92.99
2023-05-04T02:06:57.925Z,92.90
2023-05-04T02:09:26.254Z,93.30
2023-05-04T02:11:55.805Z,93.01
2023-05-04T02:14:26.015Z,93.26
2023-05-04T02:16:54.342Z,93.23
2023-05-04T02:19:22.554Z,93.92
2023-05-04T02:21:52.447Z,93.41
2023-05-04T02:24:23.527Z,94.22
2023-05-04T02:26:51.914Z,93.86
2023-05-04T02:29:21.774Z,94.20
2023-05-04T02:31:50.075Z,94.53
2023-05-04T02:34:18.382Z,94.48
2023-05-04T02:36:52.763Z,94.26
2023-05-04T02:39:21.323Z,94.53
2023-05-04T02:41:49.586Z,94.30
2023-05-04T02:44:17.869Z,94.41
2023-05-04T02:46:47.560Z,94.44
2023-05-04T02:49:15.886Z,94.51
2023-05-04T02:51:44.200Z,94.54
2023-05-04T02:54:12.492Z,94.31
2023-05-04T02:56:40.687Z,94.68
2023-05-04T02:59:09.226Z,95.16
2023-05-04T03:01:37.549Z,95.15
2023-05-04T03:04:08.621Z,95.12
2023-05-04T03:06:37.200Z,95.81
2023-05-04T03:09:05.655Z,95.69
2023-05-04T03:11:33.966Z,96.33
2023-05-04T03:14:02.248Z,96.34
2023-05-04T03:16:30.714Z,96.62
2023-05-04T03:18:59.032Z,96.98
2023-05-04T03:21:29.248Z,97.48
2023-05-04T03:23:57.497Z,97.66
2023-05-04T03:26:25.833Z,97.88
2023-05-04T03:28:54.599Z,98.15
2023-05-04T03:31:23.006Z,98.29
2023-05-04T03:33:53.753Z,98.23
2023-05-04T03:36:22.966Z,98.36
2023-05-04T03:38:53.182Z,98.47
2023-05-04T03:41:21.977Z,99.10
2023-05-04T03:43:50.243Z,99.24
2023-05-04T03:46:19.668Z,98.72
2023-05-04T03:48:48.085Z,98.77
2023-05-04T03:51:18.919Z,98.60
2023-05-04T03:53:47.323Z,98.38
2023-05-04T03:56:19.610Z,98.24
2023-05-04T03:58:48.123Z,98.35
2023-05-04T04:01:20.644Z,98.48
2023-05-04T04:03:49.255Z,98.46
2023-05-04T04:06:19.207Z,98.26
2023-05-04T04:08:47.889Z,98.27
2023-05-04T04:11:16.353Z,97.72
2023-05-04T04:13:46.084Z,97.10
2023-05-04T04:16:14.344Z,97.05
2023-05-04T04:18:42.612Z,96.70
2023-05-04T04:21:11.049Z,96.35
2023-05-04T04:23:39.406Z,96.20
2023-05-04T04:26:07.635Z,95.82
2023-05-04T04:28:35.979Z,95.60
2023-05-04T04:31:05.722Z,95.21
2023-05-04T04:33:34.632Z,95.25
2023-05-04T04:36:02.867Z,95.13
2023-05-04T04:38:31.427Z,94.68
2023-05-04T04:40:59.637Z,94.13
2023-05-04T04:43:27.880Z,93.74
2023-05-04T04:45:56.115Z,93.34
2023-05-04T04:48:25.961Z,92.89
2023-05-04T04:50:54.152Z,92.85
2023-05-04T04:53:22.429Z,92.30
2023-05-04T04:55:50.678Z,92.42
2023-05-04T04:58:19.160Z,92.44
2023-05-04T05:00:47.652Z,92.78
2023-05-04T05:03:16.098Z,91.98
2023-05-04T05:05:45.857Z,92.40
2023-05-04T05:08:14.073Z,91.07
2023-05-04T05:10:43.965Z,91.39
2023-05-04T05:13:12.594Z,91.40
2023-05-04T05:15:40.889Z,92.04
2023-05-04T05:18:09.365Z,91.92
2023-05-04T05:20:37.714Z,92.06
2023-05-04T05:23:07.549Z,91.33
2023-05-04T05:25:35.728Z,89.86
2023-05-04T05:28:04.236Z,89.02
2023-05-04T05:30:32.652Z,88.25
2023-05-04T05:33:00.982Z,87.76
2023-05-04T05:35:29.282Z,87.50
2023-05-04T05:37:57.574Z,87.26
2023-05-04T05:40:27.182Z,87.01
2023-05-04T05:42:55.419Z,86.55
2023-05-04T05:45:23.683Z,86.49
2023-05-04T05:47:52.287Z,86.47
2023-05-04T05:50:21.549Z,86.33
2023-05-04T05:52:49.855Z,85.88
2023-05-04T05:55:18.224Z,85.46
2023-05-04T05:57:47.874Z,85.16
2023-05-04T06:00:17.706Z,85.13
2023-05-04T06:02:46.132Z,85.53
2023-05-04T06:05:14.889Z,84.33
2023-05-04T06:07:43.231Z,84.58
2023-05-04T06:10:12.113Z,84.30
2023-05-04T06:12:40.428Z,83.75
2023-05-04T06:15:12.083Z,83.65
2023-05-04T06:17:40.307Z,83.45
2023-05-04T06:20:09.413Z,82.89
2023-05-04T06:22:37.921Z,83.19
2023-05-04T06:25:08.099Z,82.68
2023-05-04T06:27:36.732Z,82.83
2023-05-04T06:30:05.798Z,82.76
2023-05-04T06:32:35.978Z,81.75
2023-05-04T06:35:04.445Z,82.08
2023-05-04T06:37:33.217Z,81.66
2023-05-04T06:40:01.468Z,81.63
2023-05-04T06:42:32.175Z,81.82
2023-05-04T06:45:00.612Z,80.84
2023-05-04T06:47:28.881Z,80.47
2023-05-04T06:49:58.932Z,80.03
2023-05-04T06:52:29.670Z,80.12
2023-05-04T06:54:57.874Z,79.30
2023-05-04T06:57:26.054Z,79.41
2023-05-04T06:59:54.277Z,78.75
2023-05-04T07:02:22.691Z,76.78
2023-05-04T07:04:52.647Z,75.17
2023-05-04T07:07:22.360Z,74.89
2023-05-04T07:09:50.569Z,74.78
2023-05-04T07:12:19.257Z,74.94
2023-05-04T07:14:47.541Z,74.29
2023-05-04T07:17:15.741Z,73.81
2023-05-04T07:19:43.936Z,72.97
2023-05-04T07:22:12.461Z,71.89
2023-05-04T07:24:42.123Z,71.14
2023-05-04T07:27:10.640Z,70.62
2023-05-04T07:29:38.927Z,71.20
2023-05-04T07:32:07.191Z,71.11
2023-05-04T07:34:45.066Z,68.27
2023-05-04T07:37:15.961Z,68.88
2023-05-04T07:39:45.725Z,68.32
2023-05-04T07:42:14.093Z,68.77
2023-05-04T07:44:42.441Z,69.26
2023-05-04T07:47:10.815Z,68.16
2023-05-04T07:49:39.115Z,67.53
2023-05-04T07:52:07.392Z,67.12
2023-05-04T07:54:36.453Z,66.68
2023-05-04T07:57:06.244Z,66.40
2023-05-04T07:59:34.945Z,65.74
2023-05-04T08:02:03.346Z,63.42
2023-05-04T08:04:31.683Z,62.94
2023-05-04T08:07:00.038Z,63.96
2023-05-04T08:09:28.314Z,63.47
2023-05-04T08:11:56.632Z,62.44
2023-05-04T08:14:26.271Z,60.51
2023-05-04T08:16:54.958Z,59.84
2023-05-04T08:19:23.254Z,58.94
2023-05-04T08:21:51.554Z,59.47
2023-05-04T08:24:19.987Z,59.47
2023-05-04T08:26:59.720Z,59.26
2023-05-04T08:29:33.866Z,59.07
2023-05-04T08:32:02.051Z,58.16
2023-05-04T08:34:30.498Z,58.82
2023-05-04T08:36:59.082Z,56.62
2023-05-04T08:39:27.283Z,56.35
2023-05-04T08:41:55.721Z,57.38
2023-05-04T08:44:24.141Z,57.37
2023-05-04T08:46:54.527Z,57.55
2023-05-04T08:49:24.240Z,56.59
2023-05-04T08:51:53.066Z,56.59
2023-05-04T08:54:23.356Z,55.28
2023-05-04T08:56:55.132Z,53.59
2023-05-04T08:59:24.571Z,54.09
2023-05-04T09:01:58.906Z,52.94
2023-05-04T09:04:29.516Z,53.13
2023-05-04T09:06:58.772Z,51.91
2023-05-04T09:09:29.639Z,51.13
2023-05-04T09:11:59.026Z,50.51
2023-05-04T09:14:34.665Z,50.56
2023-05-04T09:17:13.593Z,49.66
2023-05-04T09:19:44.048Z,47.59
2023-05-04T09:22:17.278Z,46.61
2023-05-04T09:24:46.511Z,47.20
2023-05-04T09:27:18.082Z,46.55
2023-05-04T09:29:54.674Z,47.06
2023-05-04T09:32:24.469Z,47.99
2023-05-04T09:34:53.822Z,48.80
2023-05-04T09:37:23.215Z,49.53
2023-05-04T09:39:53.810Z,49.71
2023-05-04T09:42:23.491Z,49.41
2023-05-04T09:45:02.370Z,48.41
2023-05-04T09:47:36.917Z,48.22
2023-05-04T09:50:19.844Z,48.83
2023-05-04T09:52:50.412Z,48.83
2023-05-04T09:55:20.503Z,49.27
2023-05-04T09:57:50.261Z,48.74
2023-05-04T10:00:20.065Z,49.20
2023-05-04T10:02:50.558Z,49.07
2023-05-04T10:05:21.787Z,49.53
2023-05-04T10:07:50.954Z,49.28
2023-05-04T10:10:19.201Z,49.70
2023-05-04T10:12:48.127Z,49.12
2023-05-04T10:15:18.354Z,48.66
2023-05-04T10:18:03.645Z,49.57
2023-05-04T10:20:59.688Z,49.79
2023-05-04T10:23:49.580Z,49.20
2023-05-04T10:26:34.353Z,47.94
2023-05-04T10:29:14.246Z,48.25
2023-05-04T10:31:44.130Z,48.33
2023-05-04T10:34:24.718Z,47.70
2023-05-04T10:36:53.571Z,48.02
2023-05-04T10:39:23.218Z,47.99
2023-05-04T10:42:00.268Z,46.41
2023-05-04T10:44:30.072Z,46.40
2023-05-04T10:47:00.368Z,46.62
2023-05-04T10:49:30.423Z,47.23
2023-05-04T10:52:09.902Z,46.36
2023-05-04T10:54:38.822Z,46.19
2023-05-04T10:57:09.099Z,46.00
2023-05-04T10:59:38.717Z,44.81
2023-05-04T11:02:09.077Z,44.33
2023-05-04T11:04:39.472Z,44.38
2023-05-04T11:07:08.842Z,44.67
2023-05-04T11:09:39.009Z,44.72
2023-05-04T11:12:10.511Z,44.43
2023-05-04T11:14:43.305Z,43.46
2023-05-04T11:20:04.378Z,44.68
2023-05-04T11:22:33.481Z,43.40
2023-05-04T11:25:01.872Z,42.74
2023-05-04T11:27:31.989Z,43.48
2023-05-04T11:30:01.711Z,43.25
2023-05-04T11:32:38.071Z,41.64
2023-05-04T11:35:10.216Z,41.48
2023-05-04T11:37:42.983Z,41.13
2023-05-04T11:40:13.452Z,40.67
2023-05-04T11:42:43.058Z,39.88
2023-05-04T11:45:14.821Z,39.71
2023-05-04T11:47:43.569Z,39.80
2023-05-04T11:50:14.802Z,39.50
2023-05-04T11:52:43.820Z,39.51
2023-05-04T11:55:13.646Z,40.40
2023-05-04T11:57:41.939Z,39.74
2023-05-04T12:00:11.456Z,39.55
2023-05-04T12:02:39.974Z,39.59
2023-05-04T12:05:15.931Z,39.79
2023-05-04T12:07:44.397Z,40.83
2023-05-04T12:10:12.792Z,40.29
2023-05-04T12:12:41.251Z,40.01
2023-05-04T12:15:11.021Z,39.76
2023-05-04T12:17:42.839Z,39.63
2023-05-04T12:20:11.845Z,39.55
2023-05-04T12:22:41.554Z,39.97
2023-05-04T12:25:11.258Z,40.23
2023-05-04T12:27:42.685Z,40.29
2023-05-04T12:30:12.419Z,39.66
2023-05-04T12:32:40.742Z,39.38
2023-05-04T12:35:09.572Z,39.56
2023-05-04T12:37:38.014Z,38.76
2023-05-04T12:40:27.316Z,38.36
2023-05-04T12:42:56.712Z,38.25
2023-05-04T12:45:24.980Z,38.07
2023-05-04T12:47:53.318Z,37.74
2023-05-04T12:50:21.684Z,38.08
2023-05-04T12:52:49.904Z,38.34
2023-05-04T12:55:19.655Z,38.59
2023-05-04T12:57:48.013Z,37.39
2023-05-04T13:00:16.902Z,36.57
2023-05-04T13:02:45.261Z,37.13
2023-05-04T13:05:15.807Z,36.77
2023-05-04T13:07:44.384Z,37.19
2023-05-04T13:10:12.646Z,37.56
2023-05-04T13:12:43.565Z,37.98
2023-05-04T13:15:13.979Z,38.24
2023-05-04T13:17:43.456Z,38.73
2023-05-04T13:20:13.199Z,39.21
2023-05-04T13:22:41.571Z,39.41
2023-05-04T13:25:10.282Z,39.44
2023-05-04T13:27:38.473Z,39.33
2023-05-04T13:30:10.958Z,39.29
2023-05-04T13:32:39.731Z,39.52
2023-05-04T13:35:09.271Z,39.49
2023-05-04T13:37:38.290Z,39.51
2023-05-04T13:40:07.500Z,39.51
2023-05-04T13:42:37.056Z,38.38
2023-05-04T13:45:06.807Z,37.99
2023-05-04T13:47:37.592Z,37.18
2023-05-04T13:50:06.705Z,36.04
2023-05-04T13:52:34.970Z,37.39
2023-05-04T13:55:04.049Z,37.91
2023-05-04T13:57:34.473Z,38.10
2023-05-04T14:00:07.652Z,39.52
2023-05-04T14:02:41.946Z,40.31
2023-05-04T14:05:10.664Z,38.47
2023-05-04T14:07:38.927Z,39.14
2023-05-04T14:10:08.220Z,38.97
2023-05-04T14:12:36.477Z,37.88
2023-05-04T14:15:05.242Z,36.74
2023-05-04T14:17:34.249Z,36.54
2023-05-04T14:20:05.982Z,35.70
2023-05-04T14:22:37.275Z,37.21
2023-05-04T14:25:07.257Z,36.90
2023-05-04T14:27:35.655Z,37.46
2023-05-04T14:30:03.941Z,37.37
2023-05-04T14:32:34.744Z,38.14
2023-05-04T14:35:08.445Z,38.63
2023-05-04T14:37:39.334Z,38.14
2023-05-04T14:40:09.824Z,37.16
2023-05-04T14:42:38.497Z,36.77
2023-05-04T14:45:08.364Z,37.56
2023-05-04T14:47:37.102Z,38.12
2023-05-04T14:50:08.181Z,38.21
2023-05-04T14:52:36.735Z,39.13
2023-05-04T14:55:06.406Z,39.51
2023-05-04T14:57:34.786Z,40.28
2023-05-04T15:00:07.859Z,40.71
2023-05-04T15:02:38.598Z,40.28
2023-05-04T15:05:10.356Z,39.82
2023-05-04T15:07:38.704Z,39.82
2023-05-04T15:10:08.867Z,40.11
2023-05-04T15:12:40.204Z,40.84
2023-05-04T15:15:09.463Z,41.47
2023-05-04T15:17:37.754Z,41.04
2023-05-04T15:20:09.978Z,42.00
2023-05-04T15:22:38.565Z,41.47
2023-05-04T15:25:07.344Z,41.97
2023-05-04T15:27:35.777Z,41.08
2023-05-04T15:30:04.802Z,41.87
2023-05-04T15:32:35.182Z,41.96
2023-05-04T15:35:05.702Z,41.91
2023-05-04T15:37:36.563Z,42.55
2023-05-04T15:40:05.661Z,42.35
2023-05-04T15:42:34.298Z,42.62
2023-05-04T15:45:02.535Z,42.77
2023-05-04T15:47:32.748Z,43.71
2023-05-04T15:50:00.996Z,44.21
2023-05-04T15:52:29.254Z,43.92
2023-05-04T15:55:06.521Z,43.55
2023-05-04T15:57:41.119Z,43.72
2023-05-04T16:00:10.172Z,43.65
2023-05-04T16:02:38.993Z,43.63
2023-05-04T16:05:07.851Z,43.22
2023-05-04T16:07:36.170Z,43.51
2023-05-04T16:10:07.048Z,44.51
2023-05-04T16:12:35.459Z,44.15
2023-05-04T16:15:03.966Z,43.44
2023-05-04T16:17:35.195Z,44.24
2023-05-04T16:20:03.921Z,43.63
2023-05-04T16:22:34.163Z,43.65
2023-05-04T16:25:03.361Z,43.58
2023-05-04T16:27:35.489Z,43.37
2023-05-04T16:30:03.833Z,43.95
2023-05-04T16:32:33.719Z,44.27
2023-05-04T16:35:02.064Z,44.86
2023-05-04T16:37:32.321Z,44.88
2023-05-04T16:40:00.654Z,45.23
2023-05-04T16:42:28.816Z,45.03
2023-05-04T16:44:58.516Z,45.14
2023-05-04T16:47:26.882Z,45.80
2023-05-04T16:49:55.234Z,46.21
2023-05-04T16:52:23.480Z,46.97
2023-05-04T16:54:51.764Z,46.94
2023-05-04T16:57:20.234Z,47.05
2023-05-04T16:59:48.724Z,47.64
2023-05-04T17:02:18.561Z,47.87
2023-05-04T17:04:47.071Z,48.73
2023-05-04T17:07:15.352Z,49.20
2023-05-04T17:09:43.739Z,49.34
2023-05-04T17:12:12.017Z,50.11
2023-05-04T17:14:40.513Z,50.33
2023-05-04T17:17:08.756Z,50.65
2023-05-04T17:19:40.475Z,51.16
2023-05-04T17:22:11.182Z,51.89
2023-05-04T17:24:39.620Z,52.06
2023-05-04T17:27:07.992Z,52.73
2023-05-04T17:29:36.198Z,54.16
2023-05-04T17:32:04.423Z,54.93
2023-05-04T17:34:32.869Z,55.02
2023-05-04T17:37:02.513Z,55.07
2023-05-04T17:39:31.754Z,55.83
2023-05-04T17:42:00.300Z,56.48
2023-05-04T17:44:29.917Z,57.34
2023-05-04T17:46:58.062Z,57.41
2023-05-04T17:49:26.559Z,56.96
2023-05-04T17:51:56.455Z,58.16
2023-05-04T17:54:26.806Z,58.04
2023-05-04T17:56:55.205Z,58.59
2023-05-04T17:59:23.568Z,59.16
2023-05-04T18:01:51.934Z,59.19
2023-05-04T18:04:20.225Z,59.77
2023-05-04T18:06:50.577Z,59.83
2023-05-04T18:09:19.795Z,60.66
2023-05-04T18:11:49.835Z,61.10
2023-05-04T18:14:18.012Z,60.77
2023-05-04T18:16:46.505Z,61.56
2023-05-04T18:19:14.754Z,61.93
2023-05-04T18:21:43.038Z,62.10
2023-05-04T18:24:12.188Z,62.87
2023-05-04T18:26:40.369Z,63.20
2023-05-04T18:29:18.447Z,63.54
2023-05-04T18:31:47.944Z,63.26
2023-05-04T18:34:16.201Z,62.09
2023-05-04T18:36:44.485Z,62.42
2023-05-04T18:39:13.619Z,62.55
2023-05-04T18:41:42.082Z,62.42
2023-05-04T18:44:18.883Z,62.38
2023-05-04T18:46:47.538Z,62.42
2023-05-04T18:49:15.730Z,64.17
2023-05-04T18:51:44.086Z,64.22
2023-05-04T18:54:14.901Z,65.03
2023-05-04T18:56:43.295Z,65.71
2023-05-04T18:59:11.897Z,66.79
2023-05-04T19:01:44.350Z,67.30
2023-05-04T19:04:12.739Z,67.78
2023-05-04T19:06:41.237Z,68.48
2023-05-04T19:09:12.554Z,68.89
2023-05-04T19:11:41.072Z,69.70
2023-05-04T19:14:09.293Z,69.76
2023-05-04T19:16:37.528Z,71.24
2023-05-04T19:19:07.331Z,72.04
2023-05-04T19:21:35.732Z,72.40
2023-05-04T19:24:04.157Z,72.56
2023-05-04T19:26:32.431Z,73.07
2023-05-04T19:29:00.888Z,74.83
2023-05-04T19:31:29.649Z,75.07
2023-05-04T19:33:57.848Z,75.50
2023-05-04T19:36:27.507Z,76.69
2023-05-04T19:38:55.844Z,76.95
2023-05-04T19:41:24.217Z,78.29
2023-05-04T19:43:52.540Z,78.05
2023-05-04T19:46:21.584Z,78.53
2023-05-04T19:48:50.054Z,79.59
2023-05-04T19:51:18.379Z,79.94
2023-05-04T19:53:48.156Z,80.57
2023-05-04T19:56:16.413Z,81.43
2023-05-04T19:58:44.709Z,81.64
2023-05-04T20:01:13.019Z,82.09
2023-05-04T20:03:41.285Z,83.22
2023-05-04T20:06:09.577Z,83.71
2023-05-04T20:08:37.815Z,85.01
2023-05-04T20:11:07.702Z,85.48
2023-05-04T20:13:38.170Z,86.10
2023-05-04T20:16:07.367Z,85.96
2023-05-04T20:18:36.220Z,85.87
2023-05-04T20:21:04.851Z,86.61
2023-05-04T20:23:33.184Z,87.26
2023-05-04T20:26:02.168Z,87.89
2023-05-04T20:28:33.075Z,88.50
2023-05-04T20:31:01.496Z,88.58
2023-05-04T20:33:29.852Z,89.95
2023-05-04T20:35:58.759Z,90.71
2023-05-04T20:38:27.054Z,91.05
2023-05-04T20:40:55.296Z,91.06
2023-05-04T20:43:23.552Z,92.15
2023-05-04T20:45:53.492Z,91.92
2023-05-04T20:48:21.750Z,92.36
2023-05-04T20:50:51.536Z,92.54
2023-05-04T20:53:21.424Z,92.95
2023-05-04T20:55:49.700Z,93.05
2023-05-04T20:58:20.249Z,92.61
2023-05-04T21:00:48.760Z,93.52
2023-05-04T21:03:18.497Z,93.28
2023-05-04T21:05:46.889Z,92.98
2023-05-04T21:08:15.396Z,93.09
2023-05-04T21:10:43.656Z,93.68
2023-05-04T21:13:11.986Z,93.18
2023-05-04T21:15:40.766Z,93.63
2023-05-04T21:18:09.097Z,93.41
2023-05-04T21:20:38.722Z,93.26
2023-05-04T21:23:06.944Z,93.79
2023-05-04T21:25:35.741Z,93.90
2023-05-04T21:28:04.073Z,93.81
2023-05-04T21:30:32.632Z,93.79
2023-05-04T21:33:01.317Z,94.31
2023-05-04T21:35:30.897Z,94.87
2023-05-04T21:38:01.372Z,95.04
2023-05-04T21:40:29.714Z,95.27
2023-05-04T21:42:58.063Z,94.75
2023-05-04T21:45:26.469Z,95.19
2023-05-04T21:47:54.727Z,95.39
2023-05-04T21:50:23.065Z,95.87
2023-05-04T21:52:51.580Z,96.12
2023-05-04T21:55:21.749Z,96.54
2023-05-04T21:57:49.970Z,96.59
2023-05-04T22:00:19.039Z,97.08
2023-05-04T22:02:47.518Z,97.59
2023-05-04T22:05:15.995Z,97.53
2023-05-04T22:07:44.289Z,98.07
2023-05-04T22:10:12.888Z,98.04
2023-05-04T22:12:42.511Z,98.35
2023-05-04T22:15:12.165Z,98.95
2023-05-04T22:17:40.400Z,99.12
2023-05-04T22:20:09.718Z,99.29
2023-05-04T22:22:38.152Z,99.85
2023-05-04T22:25:07.177Z,99.49
2023-05-04T22:27:35.366Z,99.83
2023-05-04T22:30:05.564Z,100.00
2023-05-04T22:32:54.558Z,100.00
2023-05-04T22:35:23.343Z,100.00
2023-05-04T22:37:52.037Z,100.00
2023-05-04T22:40:20.323Z,100.00
2023-05-04T22:42:48.613Z,100.00
2023-05-04T22:45:18.725Z,100.00
2023-05-04T22:47:47.335Z,100.00
2023-05-04T22:50:16.083Z,100.00
2023-05-04T22:52:44.381Z,100.00
2023-05-04T22:55:12.509Z,100.00
2023-05-04T22:57:40.691Z,100.00
2023-05-04T23:00:10.268Z,100.00
2023-05-04T23:02:40.281Z,100.00
2023-05-04T23:05:10.078Z,100.00
2023-05-04T23:07:38.191Z,100.00
2023-05-04T23:10:07.472Z,100.00
2023-05-04T23:12:35.826Z,100.00
2023-05-04T23:15:04.152Z,100.00
2023-05-04T23:17:33.988Z,100.00
2023-05-04T23:20:03.682Z,100.00
2023-05-04T23:22:31.788Z,100.00
2023-05-04T23:24:59.903Z,100.00
2023-05-04T23:27:28.098Z,100.00
2023-05-04T23:29:56.167Z,100.00
2023-05-04T23:32:24.294Z,100.00
2023-05-04T23:34:52.504Z,100.00
2023-05-04T23:37:22.797Z,100.00
2023-05-04T23:39:51.021Z,100.00
2023-05-04T23:42:19.181Z,100.00
2023-05-04T23:44:47.297Z,99.90
2023-05-04T23:47:15.440Z,98.93
2023-05-04T23:49:43.654Z,98.13
2023-05-04T23:52:11.730Z,96.55
2023-05-04T23:54:41.168Z,96.41
2023-05-04T23:57:10.078Z,94.38
2023-05-04T23:59:38.184Z,94.08
